Time;durP1;ratioP1;P1;durP2;ratioP2;P2;SDS_P1;SDS_P2;PMS_P1;PMS_P2;Temp;Humidity;BMP_temperature;BMP_pressure;BME280_temperature;BME280_humidity;BME280_pressure;Samples;Min_cycle;Max_cycle;Signal;HPM_P1;HPM_P2
2022/02/22 00:02:07;;;;;;;19.40;3.67;;;;;;;;;;4973236;28;20304;-72
2022/02/22 00:04:36;;;;;;;13.90;3.20;;;;;;;;;;4992651;28;20241;-73
2022/02/22 00:07:10;;;;;;;17.00;3.37;;;;;;;;;;4941874;28;20333;-73
2022/02/22 00:09:40;;;;;;;18.70;3.50;;;;;;;;;;4956863;28;20235;-72
2022/02/22 00:12:11;;;;;;;20.63;3.60;;;;;;;;;;4953900;28;20230;-72
2022/02/22 00:14:41;;;;;;;29.00;4.90;;;;;;;;;;4950383;28;20213;-73
2022/02/22 00:17:07;;;;;;;23.17;4.53;;;;;;;;;;4984478;28;20710;-72
2022/02/22 00:19:35;;;;;;;29.83;5.20;;;;;;;;;;4968977;28;20221;-73
2022/02/22 00:22:05;;;;;;;29.57;5.37;;;;;;;;;;4944127;28;20225;-72
2022/02/22 00:24:33;;;;;;;32.83;5.23;;;;;;;;;;4989780;28;20226;-74
2022/02/22 00:27:04;;;;;;;35.30;5.23;;;;;;;;;;4988940;28;20233;-74
2022/02/22 00:29:32;;;;;;;32.10;5.23;;;;;;;;;;4971588;28;20769;-73
2022/02/22 00:31:57;;;;;;;36.33;5.73;;;;;;;;;;4973097;28;20229;-74
2022/02/22 00:34:23;;;;;;;29.00;5.33;;;;;;;;;;4959351;28;20222;-74
2022/02/22 00:36:51;;;;;;;35.60;6.27;;;;;;;;;;4971018;28;20225;-72
2022/02/22 00:39:22;;;;;;;39.90;6.43;;;;;;;;;;4972023;28;20265;-74
2022/02/22 00:41:50;;;;;;;31.33;6.47;;;;;;;;;;4978829;28;20218;-74
2022/02/22 00:44:18;;;;;;;30.53;5.67;;;;;;;;;;4972124;28;20226;-73
2022/02/22 00:46:48;;;;;;;31.63;5.83;;;;;;;;;;4968684;28;20701;-73
2022/02/22 00:49:16;;;;;;;31.07;5.97;;;;;;;;;;4968850;28;20601;-74
2022/02/22 00:51:44;;;;;;;33.23;5.70;;;;;;;;;;4978221;28;20698;-73
2022/02/22 00:54:14;;;;;;;28.07;6.50;;;;;;;;;;4972060;28;20300;-73
2022/02/22 00:56:40;;;;;;;30.80;6.00;;;;;;;;;;4971940;28;20309;-74
2022/02/22 00:59:05;;;;;;;29.07;5.90;;;;;;;;;;4971664;28;20221;-73
2022/02/22 01:01:36;;;;;;;34.43;6.33;;;;;;;;;;4968965;28;20277;-73
2022/02/22 01:04:04;;;;;;;36.70;6.63;;;;;;;;;;4952908;28;20227;-74
2022/02/22 01:06:29;;;;;;;32.23;6.30;;;;;;;;;;4990831;28;20863;-73
2022/02/22 01:08:59;;;;;;;33.70;5.73;;;;;;;;;;4987467;28;20218;-73
2022/02/22 01:11:25;;;;;;;35.40;6.50;;;;;;;;;;4964065;28;20276;-75
2022/02/22 01:13:53;;;;;;;29.53;5.80;;;;;;;;;;4971696;28;20305;-73
2022/02/22 01:16:19;;;;;;;29.33;6.43;;;;;;;;;;4971338;28;20633;-73
2022/02/22 01:18:47;;;;;;;35.17;5.63;;;;;;;;;;4971577;28;20257;-72
2022/02/22 01:21:15;;;;;;;31.40;5.93;;;;;;;;;;4953202;28;20952;-72
2022/02/22 01:23:40;;;;;;;38.17;6.43;;;;;;;;;;4942804;28;20223;-72
2022/02/22 01:26:06;;;;;;;28.57;6.13;;;;;;;;;;4953100;28;20225;-73
2022/02/22 01:28:33;;;;;;;30.90;6.03;;;;;;;;;;4974628;28;20221;-72
2022/02/22 01:31:04;;;;;;;31.10;6.13;;;;;;;;;;4984101;28;20226;-72
2022/02/22 01:33:29;;;;;;;30.07;6.37;;;;;;;;;;4962958;28;20248;-73
2022/02/22 01:35:55;;;;;;;27.10;5.23;;;;;;;;;;4978971;28;20217;-72
2022/02/22 01:38:23;;;;;;;28.40;5.67;;;;;;;;;;4989697;28;20228;-73
2022/02/22 01:40:52;;;;;;;29.67;5.87;;;;;;;;;;5000461;28;20222;-72
2022/02/22 01:43:18;;;;;;;33.00;5.30;;;;;;;;;;4988525;28;20217;-72
2022/02/22 01:45:46;;;;;;;27.43;5.63;;;;;;;;;;4971038;28;20257;-72
2022/02/22 01:48:12;;;;;;;26.40;5.83;;;;;;;;;;4970607;28;20764;-72
2022/02/22 01:50:40;;;;;;;26.50;6.07;;;;;;;;;;4954624;28;20234;-72
2022/02/22 01:53:06;;;;;;;28.63;5.50;;;;;;;;;;4971220;28;20217;-72
2022/02/22 01:55:38;;;;;;;29.30;5.37;;;;;;;;;;4962524;28;20254;-72
2022/02/22 01:58:06;;;;;;;28.83;5.97;;;;;;;;;;4970689;28;20225;-72
2022/02/22 02:00:34;;;;;;;25.77;5.33;;;;;;;;;;4955012;28;20222;-71
2022/02/22 02:03:00;;;;;;;27.00;5.33;;;;;;;;;;4980965;28;20233;-72
2022/02/22 02:05:25;;;;;;;24.30;5.07;;;;;;;;;;4967804;28;20215;-71
2022/02/22 02:07:53;;;;;;;23.40;5.53;;;;;;;;;;4964398;28;20597;-72
2022/02/22 02:10:19;;;;;;;25.70;4.90;;;;;;;;;;4954786;28;20317;-73
2022/02/22 02:12:47;;;;;;;22.97;5.00;;;;;;;;;;4960469;28;20226;-72
2022/02/22 02:15:12;;;;;;;18.43;4.83;;;;;;;;;;4970042;28;20214;-73
2022/02/22 02:17:43;;;;;;;25.93;5.63;;;;;;;;;;4972503;28;20218;-73
2022/02/22 02:20:11;;;;;;;26.17;5.47;;;;;;;;;;4987333;28;20225;-72
2022/02/22 02:22:38;;;;;;;23.93;5.10;;;;;;;;;;4977923;28;20312;-72
2022/02/22 02:25:04;;;;;;;28.83;5.30;;;;;;;;;;4970549;28;20217;-71
2022/02/22 02:27:32;;;;;;;20.43;4.43;;;;;;;;;;4983805;28;20217;-72
2022/02/22 02:29:59;;;;;;;20.63;4.93;;;;;;;;;;4957827;28;20584;-71
2022/02/22 02:32:32;;;;;;;23.27;4.60;;;;;;;;;;4979490;28;20356;-73
2022/02/22 02:34:58;;;;;;;20.23;4.67;;;;;;;;;;4970819;28;20308;-71
2022/02/22 02:37:25;;;;;;;23.83;4.87;;;;;;;;;;4952100;28;20219;-72
2022/02/22 02:39:53;;;;;;;23.83;5.67;;;;;;;;;;4967089;28;20229;-72
2022/02/22 02:42:19;;;;;;;26.37;5.33;;;;;;;;;;4959376;28;20296;-72
2022/02/22 02:44:45;;;;;;;31.23;5.70;;;;;;;;;;4970510;28;20250;-72
2022/02/22 02:47:11;;;;;;;32.40;5.20;;;;;;;;;;4964710;28;20218;-73
2022/02/22 02:49:41;;;;;;;27.33;5.03;;;;;;;;;;4973786;28;20233;-72
2022/02/22 02:52:09;;;;;;;25.40;5.60;;;;;;;;;;4958579;28;20223;-73
2022/02/22 02:54:35;;;;;;;22.07;5.73;;;;;;;;;;4946144;29;20754;-73
2022/02/22 02:57:05;;;;;;;26.60;5.57;;;;;;;;;;4946799;28;20241;-73
2022/02/22 02:59:34;;;;;;;24.13;4.60;;;;;;;;;;4994496;28;20217;-72
2022/02/22 03:02:02;;;;;;;26.97;6.63;;;;;;;;;;4993315;28;20221;-73
2022/02/22 03:04:30;;;;;;;28.83;6.00;;;;;;;;;;5017327;28;20280;-73
2022/02/22 03:07:00;;;;;;;25.77;6.30;;;;;;;;;;4998966;28;20300;-73
2022/02/22 03:09:28;;;;;;;31.63;6.10;;;;;;;;;;4964882;28;20540;-73
2022/02/22 03:11:54;;;;;;;27.30;5.37;;;;;;;;;;4964246;28;20220;-72
2022/02/22 03:14:19;;;;;;;26.43;5.80;;;;;;;;;;4980014;28;20345;-73
2022/02/22 03:16:47;;;;;;;22.93;4.57;;;;;;;;;;4974912;28;20588;-73
2022/02/22 03:19:13;;;;;;;28.10;5.27;;;;;;;;;;4986578;28;20218;-73
2022/02/22 03:21:39;;;;;;;19.37;4.70;;;;;;;;;;4945111;28;20250;-73
2022/02/22 03:24:07;;;;;;;25.00;5.93;;;;;;;;;;4960384;28;20730;-73
2022/02/22 03:26:38;;;;;;;23.60;4.87;;;;;;;;;;4997358;28;20235;-72
2022/02/22 03:29:05;;;;;;;25.27;5.57;;;;;;;;;;4976296;28;20296;-73
2022/02/22 03:31:31;;;;;;;27.00;5.70;;;;;;;;;;4966192;28;20218;-72
2022/02/22 03:33:59;;;;;;;26.00;5.00;;;;;;;;;;4977900;28;20218;-72
2022/02/22 03:36:27;;;;;;;24.07;5.13;;;;;;;;;;4976679;28;20221;-72
2022/02/22 03:38:54;;;;;;;29.07;5.40;;;;;;;;;;4970131;28;20670;-72
2022/02/22 03:41:23;;;;;;;22.07;5.23;;;;;;;;;;4953487;28;20309;-73
2022/02/22 03:43:51;;;;;;;26.13;5.97;;;;;;;;;;4935904;28;20226;-71
2022/02/22 03:46:16;;;;;;;23.97;4.97;;;;;;;;;;4979511;28;20227;-73
2022/02/22 03:48:44;;;;;;;26.90;5.77;;;;;;;;;;4959489;28;20325;-72
2022/02/22 03:51:16;;;;;;;23.23;4.30;;;;;;;;;;4973272;28;20234;-73
2022/02/22 03:53:44;;;;;;;23.87;5.20;;;;;;;;;;4970685;28;20594;-72
2022/02/22 03:56:12;;;;;;;20.73;4.60;;;;;;;;;;4971422;28;20214;-72
2022/02/22 03:58:37;;;;;;;29.03;6.03;;;;;;;;;;4954818;28;20222;-73
2022/02/22 04:01:06;;;;;;;27.27;5.10;;;;;;;;;;4953938;28;20227;-73
2022/02/22 04:03:31;;;;;;;25.33;5.63;;;;;;;;;;4960746;28;20249;-73
2022/02/22 04:05:57;;;;;;;19.40;4.83;;;;;;;;;;4957478;28;20217;-72
2022/02/22 04:08:25;;;;;;;24.63;4.83;;;;;;;;;;4976045;28;20225;-73
2022/02/22 04:10:53;;;;;;;15.27;4.47;;;;;;;;;;4975839;28;20308;-73
2022/02/22 04:13:23;;;;;;;22.00;5.07;;;;;;;;;;4960232;28;20218;-74
2022/02/22 04:15:49;;;;;;;19.83;4.80;;;;;;;;;;4956152;28;20588;-73
2022/02/22 04:18:16;;;;;;;19.80;4.77;;;;;;;;;;4980316;28;20710;-73
2022/02/22 04:20:47;;;;;;;15.77;4.63;;;;;;;;;;4992120;28;20217;-72
2022/02/22 04:23:15;;;;;;;21.33;4.57;;;;;;;;;;4993274;28;20221;-71
2022/02/22 04:25:41;;;;;;;18.27;4.33;;;;;;;;;;4992842;28;20218;-72
2022/02/22 04:28:10;;;;;;;15.07;4.03;;;;;;;;;;4988474;28;20734;-73
2022/02/22 04:30:35;;;;;;;18.00;3.87;;;;;;;;;;4970513;28;20230;-73
2022/02/22 04:33:03;;;;;;;17.23;3.90;;;;;;;;;;4981038;28;20214;-73
2022/02/22 04:35:30;;;;;;;16.57;4.10;;;;;;;;;;4964840;28;20228;-73
2022/02/22 04:37:56;;;;;;;22.83;4.50;;;;;;;;;;4940763;28;20724;-72
2022/02/22 04:40:22;;;;;;;21.10;4.57;;;;;;;;;;4965257;28;20227;-73
2022/02/22 04:42:49;;;;;;;18.30;4.33;;;;;;;;;;4967677;28;20308;-73
2022/02/22 04:45:15;;;;;;;17.63;4.83;;;;;;;;;;4987171;28;20301;-74
2022/02/22 04:47:44;;;;;;;22.20;4.97;;;;;;;;;;4964092;28;20317;-73
2022/02/22 04:50:16;;;;;;;18.47;4.67;;;;;;;;;;4964261;28;20231;-73
2022/02/22 04:52:41;;;;;;;20.37;4.80;;;;;;;;;;4988505;28;20305;-75
2022/02/22 04:55:12;;;;;;;20.63;5.30;;;;;;;;;;4943098;28;20218;-73
2022/02/22 04:57:40;;;;;;;22.33;4.37;;;;;;;;;;4982875;28;20292;-74
2022/02/22 05:00:12;;;;;;;24.27;4.93;;;;;;;;;;4954601;28;20305;-72
2022/02/22 05:02:39;;;;;;;28.57;5.17;;;;;;;;;;4983824;28;20227;-74
2022/02/22 05:05:11;;;;;;;22.57;4.73;;;;;;;;;;4981689;28;20623;-74
2022/02/22 05:07:38;;;;;;;24.53;4.97;;;;;;;;;;4981018;28;20678;-75
2022/02/22 05:10:04;;;;;;;13.80;3.90;;;;;;;;;;4983058;28;20226;-74
2022/02/22 05:12:30;;;;;;;16.53;3.37;;;;;;;;;;4966628;28;20217;-73
2022/02/22 05:14:56;;;;;;;16.03;3.70;;;;;;;;;;4981190;28;20240;-73
2022/02/22 05:17:21;;;;;;;15.10;3.37;;;;;;;;;;4974520;28;20639;-74
2022/02/22 05:19:54;;;;;;;18.37;3.80;;;;;;;;;;4970670;28;20283;-73
2022/02/22 05:22:22;;;;;;;14.70;3.30;;;;;;;;;;4926567;28;20218;-73
2022/02/22 05:24:50;;;;;;;19.80;3.53;;;;;;;;;;4963567;28;20229;-74
2022/02/22 05:27:20;;;;;;;16.57;3.80;;;;;;;;;;4954204;28;20215;-74
2022/02/22 05:29:50;;;;;;;24.00;4.40;;;;;;;;;;4984726;28;20607;-73
2022/02/22 05:32:18;;;;;;;25.73;4.70;;;;;;;;;;4972059;28;20701;-73
2022/02/22 05:34:44;;;;;;;22.87;4.87;;;;;;;;;;4973415;28;20224;-74
2022/02/22 05:37:12;;;;;;;31.33;6.30;;;;;;;;;;4988792;28;20583;-74
2022/02/22 05:39:37;;;;;;;29.77;5.60;;;;;;;;;;4958007;28;20224;-73
2022/02/22 05:42:03;;;;;;;32.30;5.63;;;;;;;;;;4968045;28;20214;-73
2022/02/22 05:44:33;;;;;;;34.70;6.77;;;;;;;;;;4953909;28;20777;-74
2022/02/22 05:47:01;;;;;;;26.60;5.63;;;;;;;;;;4979544;28;20767;-73
2022/02/22 05:49:26;;;;;;;29.83;5.80;;;;;;;;;;4990554;28;20217;-72
2022/02/22 05:51:55;;;;;;;30.53;5.73;;;;;;;;;;4990414;28;20224;-72
2022/02/22 05:54:24;;;;;;;25.13;5.17;;;;;;;;;;4958234;28;20222;-73
2022/02/22 05:56:54;;;;;;;31.30;5.67;;;;;;;;;;4974064;28;20214;-72
2022/02/22 05:59:20;;;;;;;29.57;5.47;;;;;;;;;;4936804;28;20242;-72
2022/02/22 06:01:48;;;;;;;31.03;6.17;;;;;;;;;;4979804;28;20230;-73
2022/02/22 06:04:13;;;;;;;36.07;6.17;;;;;;;;;;4978200;28;20665;-74
2022/02/22 06:06:42;;;;;;;27.23;5.70;;;;;;;;;;4976032;28;20241;-73
2022/02/22 06:09:09;;;;;;;33.63;6.23;;;;;;;;;;4981092;28;20223;-72
2022/02/22 06:11:39;;;;;;;32.10;6.63;;;;;;;;;;4980611;28;20674;-73
2022/02/22 06:14:09;;;;;;;25.03;6.07;;;;;;;;;;4971907;28;20222;-73
2022/02/22 06:16:35;;;;;;;26.13;6.53;;;;;;;;;;4967341;28;20609;-72
2022/02/22 06:19:01;;;;;;;35.27;6.63;;;;;;;;;;4978465;28;20226;-73
2022/02/22 06:21:32;;;;;;;29.33;6.27;;;;;;;;;;4986788;28;20611;-74
2022/02/22 06:23:57;;;;;;;22.53;6.03;;;;;;;;;;4955324;28;20218;-74
2022/02/22 06:26:25;;;;;;;30.13;5.80;;;;;;;;;;4972958;28;20588;-74
2022/02/22 06:28:53;;;;;;;29.87;6.77;;;;;;;;;;4980485;28;20210;-74
2022/02/22 06:31:21;;;;;;;27.43;5.67;;;;;;;;;;4962742;28;20250;-76
2022/02/22 06:33:48;;;;;;;23.67;5.17;;;;;;;;;;4935494;28;20215;-74
2022/02/22 06:36:14;;;;;;;32.10;5.80;;;;;;;;;;4953795;28;20297;-73
2022/02/22 06:38:40;;;;;;;30.47;5.77;;;;;;;;;;4984136;28;20697;-74
2022/02/22 06:41:08;;;;;;;28.97;5.23;;;;;;;;;;4984352;28;20697;-74
2022/02/22 06:43:36;;;;;;;31.93;6.23;;;;;;;;;;4970656;28;20229;-74
2022/02/22 06:46:04;;;;;;;29.63;6.03;;;;;;;;;;4938613;29;20714;-72
2022/02/22 06:48:34;;;;;;;29.17;5.90;;;;;;;;;;4974524;28;20222;-74
2022/02/22 06:51:01;;;;;;;24.07;5.73;;;;;;;;;;4955028;28;20231;-74
2022/02/22 06:53:27;;;;;;;26.40;6.23;;;;;;;;;;4955028;28;20214;-74
2022/02/22 06:55:52;;;;;;;25.50;5.13;;;;;;;;;;4967152;28;20202;-74
2022/02/22 06:58:18;;;;;;;25.67;6.10;;;;;;;;;;4967361;28;20319;-74
2022/02/22 07:00:46;;;;;;;22.73;5.20;;;;;;;;;;4936569;28;20245;-75
2022/02/22 07:03:11;;;;;;;24.93;5.97;;;;;;;;;;4953349;28;20302;-72
2022/02/22 07:05:39;;;;;;;26.83;5.73;;;;;;;;;;4990475;28;20245;-72
2022/02/22 07:08:05;;;;;;;21.13;5.07;;;;;;;;;;4983484;28;20305;-72
2022/02/22 07:10:34;;;;;;;25.53;5.20;;;;;;;;;;4995593;28;20217;-73
2022/02/22 07:13:02;;;;;;;24.43;7.07;;;;;;;;;;5003825;28;20214;-73
2022/02/22 07:15:27;;;;;;;29.90;7.60;;;;;;;;;;4967695;28;20313;-72
2022/02/22 07:17:59;;;;;;;21.03;5.80;;;;;;;;;;4967921;28;20222;-73
2022/02/22 07:20:28;;;;;;;22.50;5.03;;;;;;;;;;4981070;28;20712;-73
2022/02/22 07:22:56;;;;;;;25.20;5.87;;;;;;;;;;4982824;28;20210;-73
2022/02/22 07:25:24;;;;;;;27.67;6.33;;;;;;;;;;4969341;28;20667;-73
2022/02/22 07:27:53;;;;;;;24.77;5.20;;;;;;;;;;4943556;28;20233;-73
2022/02/22 07:30:19;;;;;;;27.00;6.03;;;;;;;;;;4985657;28;20228;-73
2022/02/22 07:32:50;;;;;;;19.60;5.23;;;;;;;;;;4974261;28;20225;-73
2022/02/22 07:35:16;;;;;;;24.10;5.47;;;;;;;;;;4958071;28;20251;-73
2022/02/22 07:37:45;;;;;;;24.37;5.63;;;;;;;;;;4983996;28;20228;-73
2022/02/22 07:40:12;;;;;;;23.50;5.33;;;;;;;;;;4985359;28;20748;-73
2022/02/22 07:42:40;;;;;;;27.03;5.27;;;;;;;;;;4986883;28;20723;-73
2022/02/22 07:45:07;;;;;;;25.33;5.47;;;;;;;;;;4968357;28;20218;-72
2022/02/22 07:47:32;;;;;;;24.17;5.20;;;;;;;;;;4948683;28;20215;-73
2022/02/22 07:50:05;;;;;;;24.13;4.77;;;;;;;;;;4981894;28;20883;-72
2022/02/22 07:52:33;;;;;;;18.57;5.00;;;;;;;;;;4984143;28;20604;-72
2022/02/22 07:54:59;;;;;;;26.10;5.27;;;;;;;;;;4961007;28;20237;-73
2022/02/22 07:57:27;;;;;;;25.73;4.50;;;;;;;;;;4973163;28;20249;-73
2022/02/22 07:59:54;;;;;;;28.70;5.50;;;;;;;;;;4988422;28;20609;-73
2022/02/22 08:02:22;;;;;;;22.07;5.10;;;;;;;;;;4971883;28;20244;-71
2022/02/22 08:04:47;;;;;;;28.03;5.00;;;;;;;;;;4986907;28;20660;-73
2022/02/22 08:07:14;;;;;;;24.70;5.67;;;;;;;;;;4961406;28;20222;-72
2022/02/22 08:09:42;;;;;;;25.40;5.23;;;;;;;;;;4992547;28;20236;-72
2022/02/22 08:12:08;;;;;;;21.60;5.43;;;;;;;;;;5008346;28;20237;-72
2022/02/22 08:14:34;;;;;;;23.37;5.47;;;;;;;;;;4992638;28;20229;-72
2022/02/22 08:17:04;;;;;;;23.57;5.20;;;;;;;;;;4989601;28;20232;-72
2022/02/22 08:19:29;;;;;;;22.77;5.47;;;;;;;;;;4987060;28;20225;-72
2022/02/22 08:21:58;;;;;;;23.03;5.17;;;;;;;;;;4991783;28;20705;-72
2022/02/22 08:24:26;;;;;;;22.97;5.60;;;;;;;;;;4991536;28;20274;-72
2022/02/22 08:26:54;;;;;;;21.57;6.50;;;;;;;;;;4989739;28;20700;-70
2022/02/22 08:29:22;;;;;;;23.10;5.43;;;;;;;;;;4958958;28;20233;-72
2022/02/22 08:31:50;;;;;;;22.23;5.50;;;;;;;;;;4976254;28;20586;-73
2022/02/22 08:34:20;;;;;;;23.47;5.50;;;;;;;;;;4991773;28;20213;-72
2022/02/22 08:36:48;;;;;;;21.93;5.07;;;;;;;;;;4956659;28;20214;-72
2022/02/22 08:39:16;;;;;;;23.17;4.80;;;;;;;;;;4985427;28;20226;-71
2022/02/22 08:41:44;;;;;;;20.47;4.77;;;;;;;;;;4974191;28;20229;-72
2022/02/22 08:44:13;;;;;;;23.63;5.07;;;;;;;;;;4974377;28;20217;-73
2022/02/22 08:46:40;;;;;;;24.63;5.07;;;;;;;;;;4969221;28;20214;-72
2022/02/22 08:49:09;;;;;;;23.03;5.10;;;;;;;;;;5002514;28;20348;-72
2022/02/22 08:51:34;;;;;;;24.30;5.43;;;;;;;;;;4992682;28;20226;-73
2022/02/22 08:54:00;;;;;;;14.43;4.67;;;;;;;;;;4975700;28;20304;-71
2022/02/22 08:56:28;;;;;;;19.77;5.43;;;;;;;;;;4966400;28;20877;-72
2022/02/22 08:58:53;;;;;;;23.20;4.87;;;;;;;;;;4989903;28;20213;-71
2022/02/22 09:01:20;;;;;;;20.47;4.93;;;;;;;;;;5006113;28;20715;-72
2022/02/22 09:03:48;;;;;;;18.27;4.60;;;;;;;;;;4990044;28;20225;-71
2022/02/22 09:06:14;;;;;;;21.90;5.40;;;;;;;;;;4986342;28;20852;-70
2022/02/22 09:08:44;;;;;;;21.73;4.90;;;;;;;;;;4979531;28;20225;-72
2022/02/22 09:11:12;;;;;;;20.70;5.17;;;;;;;;;;4992408;28;20716;-71
2022/02/22 09:13:37;;;;;;;22.87;5.03;;;;;;;;;;4988271;28;20225;-72
2022/02/22 09:16:05;;;;;;;20.70;5.40;;;;;;;;;;4981920;28;20276;-72
2022/02/22 09:18:31;;;;;;;24.10;4.70;;;;;;;;;;4974817;28;20219;-72
2022/02/22 09:20:59;;;;;;;21.50;4.83;;;;;;;;;;4991578;28;20606;-72
2022/02/22 09:23:30;;;;;;;22.23;5.57;;;;;;;;;;4971935;28;20222;-73
2022/02/22 09:25:56;;;;;;;26.47;5.47;;;;;;;;;;4971872;28;20233;-72
2022/02/22 09:28:24;;;;;;;20.90;5.50;;;;;;;;;;4974496;28;20369;-72
2022/02/22 09:30:49;;;;;;;25.00;5.53;;;;;;;;;;5007518;28;20225;-72
2022/02/22 09:33:15;;;;;;;23.73;4.60;;;;;;;;;;4974039;28;20213;-71
2022/02/22 09:35:44;;;;;;;19.63;4.87;;;;;;;;;;4991251;28;20750;-72
2022/02/22 09:38:12;;;;;;;21.67;5.07;;;;;;;;;;4990623;28;20221;-72
2022/02/22 09:40:40;;;;;;;18.43;5.00;;;;;;;;;;5006320;28;20226;-73
2022/02/22 09:43:09;;;;;;;22.83;6.00;;;;;;;;;;5007046;28;20251;-72
2022/02/22 09:45:34;;;;;;;20.20;4.97;;;;;;;;;;4990492;28;20221;-72
2022/02/22 09:48:04;;;;;;;23.93;5.10;;;;;;;;;;4971423;28;20216;-72
2022/02/22 09:50:36;;;;;;;19.77;5.20;;;;;;;;;;5002992;28;20234;-73
2022/02/22 09:53:04;;;;;;;23.63;5.50;;;;;;;;;;4985550;28;20292;-73
2022/02/22 09:55:30;;;;;;;21.97;5.07;;;;;;;;;;4973271;28;21346;-72
2022/02/22 09:57:56;;;;;;;21.93;4.80;;;;;;;;;;4981425;28;20217;-70
2022/02/22 10:00:30;;;;;;;24.53;5.37;;;;;;;;;;4982085;28;20235;-74
2022/02/22 10:02:59;;;;;;;23.57;5.17;;;;;;;;;;4986910;28;20221;-74
2022/02/22 10:05:30;;;;;;;19.10;4.80;;;;;;;;;;4973237;28;20225;-73
2022/02/22 10:07:59;;;;;;;21.63;5.03;;;;;;;;;;4990096;28;20210;-74
2022/02/22 10:10:36;;;;;;;23.97;4.97;;;;;;;;;;4988390;28;20233;-74
2022/02/22 10:13:07;;;;;;;23.63;4.57;;;;;;;;;;4973860;28;20681;-73
2022/02/22 10:15:41;;;;;;;17.67;4.83;;;;;;;;;;4956849;28;20221;-73
2022/02/22 10:18:07;;;;;;;20.47;4.53;;;;;;;;;;4997722;28;20218;-73
2022/02/22 10:20:33;;;;;;;17.17;4.87;;;;;;;;;;4989618;28;20292;-72
2022/02/22 10:23:02;;;;;;;15.80;4.40;;;;;;;;;;4990467;28;20739;-71
2022/02/22 10:25:30;;;;;;;16.97;4.30;;;;;;;;;;5003632;28;20295;-72
2022/02/22 10:28:00;;;;;;;16.77;4.73;;;;;;;;;;4968888;28;20222;-71
2022/02/22 10:30:38;;;;;;;17.30;4.40;;;;;;;;;;4984907;28;20225;-72
2022/02/22 10:33:10;;;;;;;19.30;4.20;;;;;;;;;;4989726;28;20253;-72
2022/02/22 10:35:35;;;;;;;13.80;4.30;;;;;;;;;;4990052;28;20661;-72
2022/02/22 10:38:13;;;;;;;18.23;4.67;;;;;;;;;;4987240;28;20223;-72
2022/02/22 10:40:40;;;;;;;16.03;4.33;;;;;;;;;;4979997;28;20222;-72
2022/02/22 10:43:06;;;;;;;21.07;4.43;;;;;;;;;;4982484;28;20222;-74
2022/02/22 10:45:34;;;;;;;21.07;5.00;;;;;;;;;;4973777;28;20641;-71
2022/02/22 10:48:00;;;;;;;16.63;4.07;;;;;;;;;;4990751;28;20217;-71
2022/02/22 10:50:26;;;;;;;16.90;3.87;;;;;;;;;;4974459;28;20802;-72
2022/02/22 10:52:52;;;;;;;14.70;4.40;;;;;;;;;;4988763;28;20225;-72
2022/02/22 10:55:17;;;;;;;22.33;4.20;;;;;;;;;;4972002;28;20293;-72
2022/02/22 10:57:49;;;;;;;16.97;3.70;;;;;;;;;;4986745;28;20214;-72
2022/02/22 11:00:19;;;;;;;14.40;3.63;;;;;;;;;;4987955;28;20220;-73
2022/02/22 11:02:45;;;;;;;15.23;4.43;;;;;;;;;;4989381;28;20593;-72
2022/02/22 11:05:15;;;;;;;13.57;3.80;;;;;;;;;;4984397;28;20214;-73
2022/02/22 11:07:50;;;;;;;15.83;4.10;;;;;;;;;;4969679;28;20624;-72
2022/02/22 11:10:15;;;;;;;16.60;4.00;;;;;;;;;;4970606;28;20225;-72
2022/02/22 11:12:53;;;;;;;14.23;3.83;;;;;;;;;;4986690;28;20632;-73
2022/02/22 11:15:40;;;;;;;13.90;3.93;;;;;;;;;;4971116;28;20308;-72
2022/02/22 11:18:20;;;;;;;13.17;3.90;;;;;;;;;;4992096;28;20228;-73
2022/02/22 11:20:47;;;;;;;22.10;4.63;;;;;;;;;;4992523;28;20225;-72
2022/02/22 11:23:24;;;;;;;18.90;4.33;;;;;;;;;;4952679;28;20245;-71
2022/02/22 11:25:52;;;;;;;14.80;4.63;;;;;;;;;;4958406;28;20221;-72
2022/02/22 11:28:17;;;;;;;18.40;4.40;;;;;;;;;;4974256;28;20256;-72
2022/02/22 11:30:45;;;;;;;17.03;3.90;;;;;;;;;;4991111;28;20662;-72
2022/02/22 11:33:15;;;;;;;17.63;4.37;;;;;;;;;;4973476;28;20245;-73
2022/02/22 11:35:47;;;;;;;14.87;4.20;;;;;;;;;;4976392;28;20253;-72
2022/02/22 11:38:13;;;;;;;14.23;4.13;;;;;;;;;;4992628;28;20268;-71
2022/02/22 11:40:48;;;;;;;15.83;3.57;;;;;;;;;;4992213;28;20221;-71
2022/02/22 11:43:22;;;;;;;15.53;4.00;;;;;;;;;;4992844;28;20219;-73
2022/02/22 11:45:50;;;;;;;15.83;4.13;;;;;;;;;;4992674;28;20304;-73
2022/02/22 11:48:17;;;;;;;13.60;3.73;;;;;;;;;;4992809;28;20223;-73
2022/02/22 11:50:46;;;;;;;14.90;3.57;;;;;;;;;;4976316;28;20292;-73
2022/02/22 11:53:13;;;;;;;11.40;3.87;;;;;;;;;;4992876;28;20258;-73
2022/02/22 11:55:39;;;;;;;14.17;4.57;;;;;;;;;;4993026;28;20312;-71
2022/02/22 11:58:19;;;;;;;12.63;3.63;;;;;;;;;;4983763;28;20292;-73
2022/02/22 12:00:46;;;;;;;12.30;3.50;;;;;;;;;;4992713;28;20710;-72
2022/02/22 12:03:13;;;;;;;15.93;3.70;;;;;;;;;;4993954;28;20225;-73
2022/02/22 12:06:02;;;;;;;12.40;3.57;;;;;;;;;;4993077;28;20606;-73
2022/02/22 12:08:33;;;;;;;17.27;4.17;;;;;;;;;;5005329;28;20232;-73
2022/02/22 12:11:06;;;;;;;14.83;3.73;;;;;;;;;;4986490;28;20218;-73
2022/02/22 12:13:43;;;;;;;14.20;3.07;;;;;;;;;;4972648;28;20241;-73
2022/02/22 12:16:25;;;;;;;16.87;3.80;;;;;;;;;;4970256;28;20221;-73
2022/02/22 12:18:52;;;;;;;14.60;4.90;;;;;;;;;;4961444;28;20221;-73
2022/02/22 12:21:22;;;;;;;21.90;6.60;;;;;;;;;;4986469;28;20719;-74
2022/02/22 12:23:50;;;;;;;13.60;4.37;;;;;;;;;;4968036;28;20210;-73
2022/02/22 12:26:20;;;;;;;13.97;3.70;;;;;;;;;;4989938;28;20287;-73
2022/02/22 12:28:50;;;;;;;15.03;4.10;;;;;;;;;;4992644;28;20217;-73
2022/02/22 12:31:34;;;;;;;15.73;4.30;;;;;;;;;;5009232;28;20320;-73
2022/02/22 12:34:10;;;;;;;13.77;4.20;;;;;;;;;;4962333;28;20866;-73
2022/02/22 12:36:40;;;;;;;16.60;4.10;;;;;;;;;;4972517;28;20743;-72
2022/02/22 12:39:07;;;;;;;14.37;4.13;;;;;;;;;;4972196;28;20845;-72
2022/02/22 12:41:35;;;;;;;13.33;3.80;;;;;;;;;;4988778;28;20648;-72
2022/02/22 12:44:07;;;;;;;17.00;4.00;;;;;;;;;;5004237;28;20217;-72
2022/02/22 12:46:32;;;;;;;14.90;4.30;;;;;;;;;;4985435;28;20229;-73
2022/02/22 12:49:07;;;;;;;17.33;5.07;;;;;;;;;;5004318;28;20221;-73
2022/02/22 12:51:42;;;;;;;17.57;4.30;;;;;;;;;;4992643;28;20217;-72
2022/02/22 12:54:13;;;;;;;20.53;6.80;;;;;;;;;;5005255;28;20217;-71
2022/02/22 12:56:50;;;;;;;13.83;3.93;;;;;;;;;;5000445;28;20218;-71
2022/02/22 12:59:33;;;;;;;16.67;4.40;;;;;;;;;;4968959;28;20224;-71
2022/02/22 13:02:02;;;;;;;24.13;5.40;;;;;;;;;;4987538;28;20236;-70
2022/02/22 13:04:34;;;;;;;16.00;4.30;;;;;;;;;;4998343;28;20225;-71
2022/02/22 13:07:02;;;;;;;13.60;4.43;;;;;;;;;;4994241;28;20218;-71
2022/02/22 13:09:30;;;;;;;16.13;3.70;;;;;;;;;;4996487;28;20700;-72
2022/02/22 13:12:00;;;;;;;13.77;3.43;;;;;;;;;;4995170;28;20224;-73
2022/02/22 13:14:46;;;;;;;14.77;3.67;;;;;;;;;;4974630;28;20736;-71
2022/02/22 13:17:14;;;;;;;10.83;2.90;;;;;;;;;;4983149;28;20652;-72
2022/02/22 13:19:44;;;;;;;15.10;3.23;;;;;;;;;;4995310;28;20234;-73
2022/02/22 13:22:29;;;;;;;15.50;3.57;;;;;;;;;;5002425;28;20659;-72
2022/02/22 13:24:59;;;;;;;14.77;3.50;;;;;;;;;;5001175;28;20237;-72
2022/02/22 13:27:26;;;;;;;13.63;3.60;;;;;;;;;;4945741;28;20275;-72
2022/02/22 13:29:58;;;;;;;14.97;3.60;;;;;;;;;;4979677;28;20232;-72
2022/02/22 13:32:28;;;;;;;16.73;3.77;;;;;;;;;;4990524;28;20225;-72
2022/02/22 13:34:54;;;;;;;8.63;3.43;;;;;;;;;;4964208;28;20716;-72
2022/02/22 13:37:26;;;;;;;16.13;5.20;;;;;;;;;;4979941;28;20222;-73
2022/02/22 13:40:05;;;;;;;17.90;4.07;;;;;;;;;;4972080;28;20305;-72
2022/02/22 13:42:32;;;;;;;17.97;4.63;;;;;;;;;;4996985;28;20677;-70
2022/02/22 13:45:02;;;;;;;15.33;5.43;;;;;;;;;;4968175;28;20221;-71
2022/02/22 13:47:37;;;;;;;17.07;6.77;;;;;;;;;;4971299;28;20213;-70
2022/02/22 13:50:13;;;;;;;12.23;4.70;;;;;;;;;;4951038;28;20263;-71
2022/02/22 13:52:42;;;;;;;14.47;3.10;;;;;;;;;;4970357;28;20228;-70
2022/02/22 13:55:07;;;;;;;14.00;3.50;;;;;;;;;;4961500;28;20229;-73
2022/02/22 13:57:37;;;;;;;11.63;3.30;;;;;;;;;;4978691;28;20268;-72
2022/02/22 14:00:06;;;;;;;12.33;3.77;;;;;;;;;;4967909;28;20652;-72
2022/02/22 14:02:37;;;;;;;13.93;3.07;;;;;;;;;;4955836;28;20214;-72
2022/02/22 14:05:06;;;;;;;10.80;3.17;;;;;;;;;;4979175;28;20241;-72
2022/02/22 14:07:32;;;;;;;15.30;3.77;;;;;;;;;;4974560;28;20232;-71
2022/02/22 14:09:57;;;;;;;12.43;3.20;;;;;;;;;;4965352;28;20230;-71
2022/02/22 14:12:26;;;;;;;12.43;3.33;;;;;;;;;;4986499;28;20209;-71
2022/02/22 14:14:52;;;;;;;16.13;3.57;;;;;;;;;;4975044;28;20228;-72
2022/02/22 14:17:22;;;;;;;16.23;3.60;;;;;;;;;;4982294;28;20253;-71
2022/02/22 14:19:53;;;;;;;12.53;3.40;;;;;;;;;;4990025;28;20245;-71
2022/02/22 14:22:21;;;;;;;15.37;3.63;;;;;;;;;;4989706;28;20291;-72
2022/02/22 14:24:48;;;;;;;15.53;3.30;;;;;;;;;;4986302;28;20264;-71
2022/02/22 14:27:21;;;;;;;12.47;4.03;;;;;;;;;;4984662;28;20245;-71
2022/02/22 14:29:46;;;;;;;12.60;3.83;;;;;;;;;;4985537;28;20222;-71
2022/02/22 14:32:14;;;;;;;16.07;3.57;;;;;;;;;;4971226;28;20229;-72
2022/02/22 14:34:43;;;;;;;14.30;3.80;;;;;;;;;;4968823;28;20696;-71
2022/02/22 14:37:13;;;;;;;11.77;3.77;;;;;;;;;;5005946;28;20699;-71
2022/02/22 14:39:39;;;;;;;15.43;4.30;;;;;;;;;;4973819;28;20237;-71